Axton, Virginia
Current Conditions -  °F | °C
As of 5:55 PM on Wednesday 22 Oct 2014 (Local Time) from KMTV Reporting Station
Scattered Clouds Scattered Clouds  
Wind Chill: 56°   Ceiling: Unl
Heat Index: 56°   Visibility: 10mi
Dew Point: 41°   Wind: 14mph
Humidity: 56%   Direction: 330°NNW
Pressure: 30.07"   Gusts: 24mph
Location:  36.66°N, 79.71°W
Report Text: KMTV 222155Z AUTO 33012G21KT 10SM SCT047 14/05 A3007 RMK AO2 T01360049
Loading
Personal Weather Stations






























Interactive Weather Map
Tropical Storm Tracking
New forecast layout! Learn more

10-Day Weather Forecast

Advertisements
Track Severe Weather on mobile